sensor_id;sensor_type;location;lat;lon;timestamp;P1;durP1;ratioP1;P2;durP2;ratioP2
7767;SDS011;3928;42.626;23.382;2023-06-10T00:00:26;8.18;;;6.22;;
7767;SDS011;3928;42.626;23.382;2023-06-10T00:02:53;8.18;;;5.35;;
7767;SDS011;3928;42.626;23.382;2023-06-10T00:05:20;6.60;;;5.68;;
7767;SDS011;3928;42.626;23.382;2023-06-10T00:07:48;5.93;;;5.32;;
7767;SDS011;3928;42.626;23.382;2023-06-10T00:10:16;6.00;;;4.72;;
7767;SDS011;3928;42.626;23.382;2023-06-10T00:12:43;5.32;;;4.82;;
7767;SDS011;3928;42.626;23.382;2023-06-10T00:15:10;7.80;;;4.82;;
7767;SDS011;3928;42.626;23.382;2023-06-10T00:17:36;7.38;;;5.68;;
7767;SDS011;3928;42.626;23.382;2023-06-10T00:20:05;6.57;;;5.93;;
7767;SDS011;3928;42.626;23.382;2023-06-10T00:22:34;5.55;;;4.97;;
7767;SDS011;3928;42.626;23.382;2023-06-10T00:25:02;10.27;;;5.20;;
7767;SDS011;3928;42.626;23.382;2023-06-10T00:27:30;6.25;;;5.25;;
7767;SDS011;3928;42.626;23.382;2023-06-10T00:30:00;7.80;;;5.03;;
7767;SDS011;3928;42.626;23.382;2023-06-10T00:32:29;6.03;;;5.13;;
7767;SDS011;3928;42.626;23.382;2023-06-10T00:34:56;5.03;;;4.53;;
7767;SDS011;3928;42.626;23.382;2023-06-10T00:37:23;8.57;;;5.72;;
7767;SDS011;3928;42.626;23.382;2023-06-10T00:39:49;8.43;;;5.43;;
7767;SDS011;3928;42.626;23.382;2023-06-10T00:42:18;6.88;;;6.18;;
7767;SDS011;3928;42.626;23.382;2023-06-10T00:44:44;6.18;;;5.40;;
7767;SDS011;3928;42.626;23.382;2023-06-10T00:47:11;7.03;;;6.32;;
7767;SDS011;3928;42.626;23.382;2023-06-10T00:49:38;10.88;;;6.70;;
7767;SDS011;3928;42.626;23.382;2023-06-10T00:52:06;8.68;;;6.43;;
7767;SDS011;3928;42.626;23.382;2023-06-10T00:54:35;6.35;;;5.72;;
7767;SDS011;3928;42.626;23.382;2023-06-10T00:57:03;9.38;;;6.85;;
7767;SDS011;3928;42.626;23.382;2023-06-10T00:59:33;9.00;;;6.30;;
7767;SDS011;3928;42.626;23.382;2023-06-10T01:02:01;8.70;;;6.25;;
7767;SDS011;3928;42.626;23.382;2023-06-10T01:04:28;7.90;;;7.10;;
7767;SDS011;3928;42.626;23.382;2023-06-10T01:06:57;9.05;;;6.97;;
7767;SDS011;3928;42.626;23.382;2023-06-10T01:09:33;13.77;;;7.22;;
7767;SDS011;3928;42.626;23.382;2023-06-10T01:12:08;12.95;;;8.38;;
7767;SDS011;3928;42.626;23.382;2023-06-10T01:14:42;12.88;;;9.70;;
7767;SDS011;3928;42.626;23.382;2023-06-10T01:17:10;13.05;;;10.48;;
7767;SDS011;3928;42.626;23.382;2023-06-10T01:19:37;14.75;;;11.32;;
7767;SDS011;3928;42.626;23.382;2023-06-10T01:22:07;11.65;;;10.45;;
7767;SDS011;3928;42.626;23.382;2023-06-10T01:24:35;12.15;;;8.65;;
7767;SDS011;3928;42.626;23.382;2023-06-10T01:27:05;10.02;;;7.68;;
7767;SDS011;3928;42.626;23.382;2023-06-10T01:29:40;10.13;;;8.50;;
7767;SDS011;3928;42.626;23.382;2023-06-10T01:32:12;8.73;;;7.88;;
7767;SDS011;3928;42.626;23.382;2023-06-10T01:34:42;8.20;;;7.40;;
7767;SDS011;3928;42.626;23.382;2023-06-10T01:37:13;9.20;;;8.18;;
7767;SDS011;3928;42.626;23.382;2023-06-10T01:39:42;9.77;;;7.95;;
7767;SDS011;3928;42.626;23.382;2023-06-10T01:42:09;9.32;;;8.07;;
7767;SDS011;3928;42.626;23.382;2023-06-10T01:44:38;10.27;;;8.35;;
7767;SDS011;3928;42.626;23.382;2023-06-10T01:47:07;12.70;;;9.00;;
7767;SDS011;3928;42.626;23.382;2023-06-10T01:49:33;10.18;;;8.82;;
7767;SDS011;3928;42.626;23.382;2023-06-10T01:52:00;10.13;;;8.98;;
7767;SDS011;3928;42.626;23.382;2023-06-10T01:54:29;11.50;;;9.68;;
7767;SDS011;3928;42.626;23.382;2023-06-10T01:56:55;11.55;;;9.60;;
7767;SDS011;3928;42.626;23.382;2023-06-10T01:59:22;11.68;;;9.65;;
7767;SDS011;3928;42.626;23.382;2023-06-10T02:01:49;13.80;;;9.35;;
7767;SDS011;3928;42.626;23.382;2023-06-10T02:04:16;11.05;;;9.82;;
7767;SDS011;3928;42.626;23.382;2023-06-10T02:06:43;13.48;;;10.18;;
7767;SDS011;3928;42.626;23.382;2023-06-10T02:09:10;14.15;;;10.75;;
7767;SDS011;3928;42.626;23.382;2023-06-10T02:11:38;13.82;;;10.90;;
7767;SDS011;3928;42.626;23.382;2023-06-10T02:14:05;15.07;;;11.00;;
7767;SDS011;3928;42.626;23.382;2023-06-10T02:16:32;12.85;;;10.70;;
7767;SDS011;3928;42.626;23.382;2023-06-10T02:18:59;15.85;;;10.88;;
7767;SDS011;3928;42.626;23.382;2023-06-10T02:21:25;11.73;;;9.77;;
7767;SDS011;3928;42.626;23.382;2023-06-10T02:23:52;12.20;;;10.15;;
7767;SDS011;3928;42.626;23.382;2023-06-10T02:26:19;12.02;;;10.13;;
7767;SDS011;3928;42.626;23.382;2023-06-10T02:28:47;12.65;;;10.27;;
7767;SDS011;3928;42.626;23.382;2023-06-10T02:31:14;12.38;;;11.07;;
7767;SDS011;3928;42.626;23.382;2023-06-10T02:33:43;13.45;;;10.40;;
7767;SDS011;3928;42.626;23.382;2023-06-10T02:36:10;10.80;;;9.55;;
7767;SDS011;3928;42.626;23.382;2023-06-10T02:38:38;9.63;;;8.63;;
7767;SDS011;3928;42.626;23.382;2023-06-10T02:41:05;10.43;;;9.18;;
7767;SDS011;3928;42.626;23.382;2023-06-10T02:43:32;9.65;;;8.65;;
7767;SDS011;3928;42.626;23.382;2023-06-10T02:46:00;10.30;;;9.15;;
7767;SDS011;3928;42.626;23.382;2023-06-10T02:48:27;12.65;;;8.40;;
7767;SDS011;3928;42.626;23.382;2023-06-10T02:50:54;12.40;;;8.20;;
7767;SDS011;3928;42.626;23.382;2023-06-10T02:53:21;9.57;;;7.70;;
7767;SDS011;3928;42.626;23.382;2023-06-10T02:55:48;9.15;;;8.05;;
7767;SDS011;3928;42.626;23.382;2023-06-10T02:58:15;14.15;;;7.90;;
7767;SDS011;3928;42.626;23.382;2023-06-10T03:00:41;9.15;;;7.97;;
7767;SDS011;3928;42.626;23.382;2023-06-10T03:03:11;9.75;;;8.00;;
7767;SDS011;3928;42.626;23.382;2023-06-10T03:05:38;8.77;;;7.55;;
7767;SDS011;3928;42.626;23.382;2023-06-10T03:08:05;7.80;;;7.05;;
7767;SDS011;3928;42.626;23.382;2023-06-10T03:10:32;8.35;;;7.47;;
7767;SDS011;3928;42.626;23.382;2023-06-10T03:12:59;8.80;;;6.55;;
7767;SDS011;3928;42.626;23.382;2023-06-10T03:15:25;11.75;;;7.57;;
7767;SDS011;3928;42.626;23.382;2023-06-10T03:17:54;7.10;;;6.40;;
7767;SDS011;3928;42.626;23.382;2023-06-10T03:20:23;7.90;;;7.10;;
7767;SDS011;3928;42.626;23.382;2023-06-10T03:22:50;9.80;;;7.60;;
7767;SDS011;3928;42.626;23.382;2023-06-10T03:25:17;10.15;;;6.97;;
7767;SDS011;3928;42.626;23.382;2023-06-10T03:27:46;13.82;;;7.57;;
7767;SDS011;3928;42.626;23.382;2023-06-10T03:30:13;7.70;;;6.90;;
7767;SDS011;3928;42.626;23.382;2023-06-10T03:32:40;8.25;;;7.22;;
7767;SDS011;3928;42.626;23.382;2023-06-10T03:35:07;9.35;;;8.40;;
7767;SDS011;3928;42.626;23.382;2023-06-10T03:37:36;12.30;;;6.78;;
7767;SDS011;3928;42.626;23.382;2023-06-10T03:40:03;9.35;;;6.95;;
7767;SDS011;3928;42.626;23.382;2023-06-10T03:42:30;11.70;;;6.90;;
7767;SDS011;3928;42.626;23.382;2023-06-10T03:44:57;8.73;;;6.40;;
7767;SDS011;3928;42.626;23.382;2023-06-10T03:47:24;9.63;;;6.50;;
7767;SDS011;3928;42.626;23.382;2023-06-10T03:49:51;10.82;;;6.63;;
7767;SDS011;3928;42.626;23.382;2023-06-10T03:52:18;9.48;;;6.75;;
7767;SDS011;3928;42.626;23.382;2023-06-10T03:54:47;7.63;;;6.72;;
7767;SDS011;3928;42.626;23.382;2023-06-10T03:57:13;10.70;;;7.63;;
7767;SDS011;3928;42.626;23.382;2023-06-10T03:59:40;10.63;;;7.32;;
7767;SDS011;3928;42.626;23.382;2023-06-10T04:02:07;8.82;;;7.90;;
7767;SDS011;3928;42.626;23.382;2023-06-10T04:04:34;9.18;;;8.05;;
7767;SDS011;3928;42.626;23.382;2023-06-10T04:07:01;9.18;;;8.05;;
7767;SDS011;3928;42.626;23.382;2023-06-10T04:09:28;8.45;;;7.65;;
7767;SDS011;3928;42.626;23.382;2023-06-10T04:11:56;9.20;;;7.03;;
7767;SDS011;3928;42.626;23.382;2023-06-10T04:14:23;7.88;;;6.60;;
7767;SDS011;3928;42.626;23.382;2023-06-10T04:16:50;10.32;;;7.65;;
7767;SDS011;3928;42.626;23.382;2023-06-10T04:19:16;11.73;;;7.93;;
7767;SDS011;3928;42.626;23.382;2023-06-10T04:21:43;9.80;;;8.35;;
7767;SDS011;3928;42.626;23.382;2023-06-10T04:24:10;9.25;;;8.30;;
7767;SDS011;3928;42.626;23.382;2023-06-10T04:26:37;10.23;;;9.23;;
7767;SDS011;3928;42.626;23.382;2023-06-10T04:29:05;16.38;;;10.60;;
7767;SDS011;3928;42.626;23.382;2023-06-10T04:31:32;13.40;;;9.88;;
7767;SDS011;3928;42.626;23.382;2023-06-10T04:33:59;10.15;;;9.15;;
7767;SDS011;3928;42.626;23.382;2023-06-10T04:36:26;10.43;;;9.27;;
7767;SDS011;3928;42.626;23.382;2023-06-10T04:38:54;11.43;;;9.65;;
7767;SDS011;3928;42.626;23.382;2023-06-10T04:41:21;10.35;;;9.25;;
7767;SDS011;3928;42.626;23.382;2023-06-10T04:43:48;12.88;;;10.02;;
7767;SDS011;3928;42.626;23.382;2023-06-10T04:46:16;15.73;;;11.80;;
7767;SDS011;3928;42.626;23.382;2023-06-10T04:48:43;16.73;;;10.70;;
7767;SDS011;3928;42.626;23.382;2023-06-10T04:51:12;10.60;;;9.50;;
7767;SDS011;3928;42.626;23.382;2023-06-10T04:53:39;15.27;;;9.50;;
7767;SDS011;3928;42.626;23.382;2023-06-10T04:56:06;13.82;;;10.63;;
7767;SDS011;3928;42.626;23.382;2023-06-10T04:58:34;17.23;;;10.45;;
7767;SDS011;3928;42.626;23.382;2023-06-10T05:01:01;14.18;;;10.05;;
7767;SDS011;3928;42.626;23.382;2023-06-10T05:03:29;13.15;;;9.68;;
7767;SDS011;3928;42.626;23.382;2023-06-10T05:05:56;10.10;;;9.02;;
7767;SDS011;3928;42.626;23.382;2023-06-10T05:08:23;14.90;;;9.63;;
7767;SDS011;3928;42.626;23.382;2023-06-10T05:10:50;11.05;;;9.75;;
7767;SDS011;3928;42.626;23.382;2023-06-10T05:13:16;16.15;;;9.63;;
7767;SDS011;3928;42.626;23.382;2023-06-10T05:15:44;14.45;;;10.88;;
7767;SDS011;3928;42.626;23.382;2023-06-10T05:18:11;10.80;;;9.43;;
7767;SDS011;3928;42.626;23.382;2023-06-10T05:20:40;11.82;;;9.25;;
7767;SDS011;3928;42.626;23.382;2023-06-10T05:23:07;12.35;;;8.95;;
7767;SDS011;3928;42.626;23.382;2023-06-10T05:25:33;10.82;;;8.65;;
7767;SDS011;3928;42.626;23.382;2023-06-10T05:28:01;9.68;;;8.80;;
7767;SDS011;3928;42.626;23.382;2023-06-10T05:30:28;9.65;;;8.40;;
7767;SDS011;3928;42.626;23.382;2023-06-10T05:32:55;10.27;;;8.15;;
7767;SDS011;3928;42.626;23.382;2023-06-10T05:35:22;9.60;;;8.30;;
7767;SDS011;3928;42.626;23.382;2023-06-10T05:37:51;9.63;;;8.63;;
7767;SDS011;3928;42.626;23.382;2023-06-10T05:40:18;9.63;;;8.70;;
7767;SDS011;3928;42.626;23.382;2023-06-10T05:42:45;13.52;;;9.02;;
7767;SDS011;3928;42.626;23.382;2023-06-10T05:45:11;9.43;;;8.45;;
7767;SDS011;3928;42.626;23.382;2023-06-10T05:47:38;14.57;;;9.20;;
7767;SDS011;3928;42.626;23.382;2023-06-10T05:50:06;12.30;;;8.55;;
7767;SDS011;3928;42.626;23.382;2023-06-10T05:52:34;11.27;;;8.68;;
7767;SDS011;3928;42.626;23.382;2023-06-10T05:55:02;14.13;;;8.25;;
7767;SDS011;3928;42.626;23.382;2023-06-10T05:57:29;10.43;;;8.93;;
7767;SDS011;3928;42.626;23.382;2023-06-10T05:59:56;9.73;;;8.40;;
7767;SDS011;3928;42.626;23.382;2023-06-10T06:02:23;11.88;;;9.63;;
7767;SDS011;3928;42.626;23.382;2023-06-10T06:04:50;12.57;;;9.38;;
7767;SDS011;3928;42.626;23.382;2023-06-10T06:07:17;13.07;;;9.88;;
7767;SDS011;3928;42.626;23.382;2023-06-10T06:09:45;10.82;;;9.38;;
7767;SDS011;3928;42.626;23.382;2023-06-10T06:12:20;12.07;;;9.70;;
7767;SDS011;3928;42.626;23.382;2023-06-10T06:14:46;14.13;;;9.75;;
7767;SDS011;3928;42.626;23.382;2023-06-10T06:17:14;12.55;;;10.93;;
7767;SDS011;3928;42.626;23.382;2023-06-10T06:19:41;12.38;;;10.75;;
7767;SDS011;3928;42.626;23.382;2023-06-10T06:22:08;14.85;;;11.90;;
7767;SDS011;3928;42.626;23.382;2023-06-10T06:24:54;12.38;;;11.18;;
7767;SDS011;3928;42.626;23.382;2023-06-10T06:27:22;16.83;;;11.80;;
7767;SDS011;3928;42.626;23.382;2023-06-10T06:29:49;13.43;;;11.60;;
7767;SDS011;3928;42.626;23.382;2023-06-10T06:32:16;15.23;;;12.18;;
7767;SDS011;3928;42.626;23.382;2023-06-10T06:34:43;13.73;;;11.52;;
7767;SDS011;3928;42.626;23.382;2023-06-10T06:37:09;13.63;;;12.13;;
7767;SDS011;3928;42.626;23.382;2023-06-10T06:39:36;15.38;;;12.50;;
7767;SDS011;3928;42.626;23.382;2023-06-10T06:42:03;18.48;;;13.38;;
7767;SDS011;3928;42.626;23.382;2023-06-10T06:44:32;16.65;;;13.38;;
7767;SDS011;3928;42.626;23.382;2023-06-10T06:46:59;19.67;;;13.32;;
7767;SDS011;3928;42.626;23.382;2023-06-10T06:49:26;15.45;;;13.25;;
7767;SDS011;3928;42.626;23.382;2023-06-10T06:51:53;16.05;;;14.30;;
7767;SDS011;3928;42.626;23.382;2023-06-10T06:54:20;15.55;;;13.50;;
7767;SDS011;3928;42.626;23.382;2023-06-10T06:56:47;20.50;;;18.35;;
7767;SDS011;3928;42.626;23.382;2023-06-10T06:59:14;16.45;;;14.60;;
7767;SDS011;3928;42.626;23.382;2023-06-10T07:01:43;15.70;;;13.73;;
7767;SDS011;3928;42.626;23.382;2023-06-10T07:04:11;17.02;;;15.38;;
7767;SDS011;3928;42.626;23.382;2023-06-10T07:06:37;16.92;;;13.65;;
7767;SDS011;3928;42.626;23.382;2023-06-10T07:09:04;21.13;;;15.45;;
7767;SDS011;3928;42.626;23.382;2023-06-10T07:11:31;22.27;;;13.75;;
7767;SDS011;3928;42.626;23.382;2023-06-10T07:13:58;14.93;;;13.10;;
7767;SDS011;3928;42.626;23.382;2023-06-10T07:16:25;26.50;;;16.35;;
7767;SDS011;3928;42.626;23.382;2023-06-10T07:18:53;21.10;;;13.75;;
7767;SDS011;3928;42.626;23.382;2023-06-10T07:21:20;18.67;;;13.07;;
7767;SDS011;3928;42.626;23.382;2023-06-10T07:23:47;14.05;;;11.82;;
7767;SDS011;3928;42.626;23.382;2023-06-10T07:26:14;17.52;;;12.63;;
7767;SDS011;3928;42.626;23.382;2023-06-10T07:28:42;14.20;;;12.27;;
7767;SDS011;3928;42.626;23.382;2023-06-10T07:31:09;17.23;;;12.27;;
7767;SDS011;3928;42.626;23.382;2023-06-10T07:33:37;14.18;;;11.48;;
7767;SDS011;3928;42.626;23.382;2023-06-10T07:36:06;29.83;;;15.68;;
7767;SDS011;3928;42.626;23.382;2023-06-10T07:38:33;21.08;;;10.95;;
7767;SDS011;3928;42.626;23.382;2023-06-10T07:41:00;13.20;;;10.38;;
7767;SDS011;3928;42.626;23.382;2023-06-10T07:43:27;15.35;;;10.85;;
7767;SDS011;3928;42.626;23.382;2023-06-10T07:45:53;9.90;;;8.20;;
7767;SDS011;3928;42.626;23.382;2023-06-10T07:48:20;16.38;;;8.43;;
7767;SDS011;3928;42.626;23.382;2023-06-10T07:50:47;14.40;;;8.82;;
7767;SDS011;3928;42.626;23.382;2023-06-10T07:53:15;13.65;;;8.38;;
7767;SDS011;3928;42.626;23.382;2023-06-10T07:55:42;10.90;;;8.13;;
7767;SDS011;3928;42.626;23.382;2023-06-10T07:58:09;13.13;;;7.90;;
7767;SDS011;3928;42.626;23.382;2023-06-10T08:00:36;10.27;;;6.43;;
7767;SDS011;3928;42.626;23.382;2023-06-10T08:03:03;11.27;;;6.82;;
7767;SDS011;3928;42.626;23.382;2023-06-10T08:05:30;11.77;;;6.80;;
7767;SDS011;3928;42.626;23.382;2023-06-10T08:07:57;10.50;;;6.90;;
7767;SDS011;3928;42.626;23.382;2023-06-10T08:10:25;9.98;;;5.70;;
7767;SDS011;3928;42.626;23.382;2023-06-10T08:12:52;6.68;;;5.65;;
7767;SDS011;3928;42.626;23.382;2023-06-10T08:15:19;10.02;;;5.75;;
7767;SDS011;3928;42.626;23.382;2023-06-10T08:17:46;12.07;;;6.65;;
7767;SDS011;3928;42.626;23.382;2023-06-10T08:20:13;9.65;;;5.35;;
7767;SDS011;3928;42.626;23.382;2023-06-10T08:22:41;8.27;;;5.00;;
7767;SDS011;3928;42.626;23.382;2023-06-10T08:25:08;9.38;;;5.40;;
7767;SDS011;3928;42.626;23.382;2023-06-10T08:27:37;6.95;;;5.75;;
7767;SDS011;3928;42.626;23.382;2023-06-10T08:30:04;10.68;;;5.88;;
7767;SDS011;3928;42.626;23.382;2023-06-10T08:32:33;8.73;;;6.07;;
7767;SDS011;3928;42.626;23.382;2023-06-10T08:34:59;9.05;;;5.47;;
7767;SDS011;3928;42.626;23.382;2023-06-10T08:37:26;6.40;;;5.10;;
7767;SDS011;3928;42.626;23.382;2023-06-10T08:39:53;7.88;;;6.15;;
7767;SDS011;3928;42.626;23.382;2023-06-10T08:42:22;7.05;;;5.10;;
7767;SDS011;3928;42.626;23.382;2023-06-10T08:44:53;9.48;;;6.15;;
7767;SDS011;3928;42.626;23.382;2023-06-10T08:47:22;7.70;;;5.35;;
7767;SDS011;3928;42.626;23.382;2023-06-10T08:49:49;6.80;;;5.30;;
7767;SDS011;3928;42.626;23.382;2023-06-10T08:52:19;7.55;;;4.90;;
7767;SDS011;3928;42.626;23.382;2023-06-10T08:54:48;5.72;;;3.70;;
7767;SDS011;3928;42.626;23.382;2023-06-10T08:57:19;5.13;;;3.42;;
7767;SDS011;3928;42.626;23.382;2023-06-10T08:59:47;4.15;;;3.72;;
7767;SDS011;3928;42.626;23.382;2023-06-10T09:02:16;5.60;;;3.53;;
7767;SDS011;3928;42.626;23.382;2023-06-10T09:04:44;7.40;;;3.28;;
7767;SDS011;3928;42.626;23.382;2023-06-10T09:07:13;6.80;;;3.60;;
7767;SDS011;3928;42.626;23.382;2023-06-10T09:09:40;7.18;;;3.47;;
7767;SDS011;3928;42.626;23.382;2023-06-10T09:12:08;4.03;;;3.10;;
7767;SDS011;3928;42.626;23.382;2023-06-10T09:14:35;6.10;;;3.28;;
7767;SDS011;3928;42.626;23.382;2023-06-10T09:17:03;3.45;;;2.78;;
7767;SDS011;3928;42.626;23.382;2023-06-10T09:19:31;4.40;;;2.97;;
7767;SDS011;3928;42.626;23.382;2023-06-10T09:21:58;4.45;;;3.30;;
7767;SDS011;3928;42.626;23.382;2023-06-10T09:24:25;4.63;;;3.50;;
7767;SDS011;3928;42.626;23.382;2023-06-10T09:26:54;4.65;;;3.80;;
7767;SDS011;3928;42.626;23.382;2023-06-10T09:29:29;3.80;;;3.47;;
7767;SDS011;3928;42.626;23.382;2023-06-10T09:31:55;5.15;;;3.20;;
7767;SDS011;3928;42.626;23.382;2023-06-10T09:34:24;4.70;;;3.63;;
7767;SDS011;3928;42.626;23.382;2023-06-10T09:36:53;5.38;;;3.60;;
7767;SDS011;3928;42.626;23.382;2023-06-10T09:39:20;6.13;;;3.45;;
7767;SDS011;3928;42.626;23.382;2023-06-10T09:41:47;5.82;;;3.90;;
7767;SDS011;3928;42.626;23.382;2023-06-10T09:44:14;5.45;;;3.22;;
7767;SDS011;3928;42.626;23.382;2023-06-10T09:46:43;9.27;;;3.95;;
7767;SDS011;3928;42.626;23.382;2023-06-10T09:49:12;6.90;;;4.13;;
7767;SDS011;3928;42.626;23.382;2023-06-10T09:51:48;8.60;;;3.97;;
7767;SDS011;3928;42.626;23.382;2023-06-10T09:54:18;7.88;;;3.47;;
7767;SDS011;3928;42.626;23.382;2023-06-10T09:56:46;6.35;;;3.65;;
7767;SDS011;3928;42.626;23.382;2023-06-10T09:59:13;5.20;;;3.40;;
7767;SDS011;3928;42.626;23.382;2023-06-10T10:01:41;4.88;;;3.47;;
7767;SDS011;3928;42.626;23.382;2023-06-10T10:04:08;5.03;;;3.78;;
7767;SDS011;3928;42.626;23.382;2023-06-10T10:06:34;6.05;;;3.53;;
7767;SDS011;3928;42.626;23.382;2023-06-10T10:09:02;6.32;;;3.45;;
7767;SDS011;3928;42.626;23.382;2023-06-10T10:11:31;6.40;;;3.55;;
7767;SDS011;3928;42.626;23.382;2023-06-10T10:14:00;5.15;;;3.42;;
7767;SDS011;3928;42.626;23.382;2023-06-10T10:16:32;4.00;;;3.33;;
7767;SDS011;3928;42.626;23.382;2023-06-10T10:19:04;6.03;;;3.30;;
7767;SDS011;3928;42.626;23.382;2023-06-10T10:21:35;7.80;;;3.60;;
7767;SDS011;3928;42.626;23.382;2023-06-10T10:24:08;8.07;;;3.42;;
7767;SDS011;3928;42.626;23.382;2023-06-10T10:26:42;5.05;;;3.95;;
7767;SDS011;3928;42.626;23.382;2023-06-10T10:29:14;6.00;;;4.18;;
7767;SDS011;3928;42.626;23.382;2023-06-10T10:31:46;11.00;;;3.83;;
7767;SDS011;3928;42.626;23.382;2023-06-10T10:34:16;7.07;;;3.85;;
7767;SDS011;3928;42.626;23.382;2023-06-10T10:36:48;6.97;;;3.70;;
7767;SDS011;3928;42.626;23.382;2023-06-10T10:39:16;9.80;;;3.72;;
7767;SDS011;3928;42.626;23.382;2023-06-10T10:41:46;7.80;;;3.72;;
7767;SDS011;3928;42.626;23.382;2023-06-10T10:44:14;4.70;;;3.28;;
7767;SDS011;3928;42.626;23.382;2023-06-10T10:46:42;6.68;;;3.40;;
7767;SDS011;3928;42.626;23.382;2023-06-10T10:49:10;4.07;;;3.13;;
7767;SDS011;3928;42.626;23.382;2023-06-10T10:51:38;3.92;;;2.95;;
7767;SDS011;3928;42.626;23.382;2023-06-10T10:54:27;6.35;;;3.70;;
7767;SDS011;3928;42.626;23.382;2023-06-10T10:57:10;6.85;;;3.50;;
7767;SDS011;3928;42.626;23.382;2023-06-10T10:59:54;6.80;;;3.15;;
7767;SDS011;3928;42.626;23.382;2023-06-10T11:02:32;5.45;;;3.20;;
7767;SDS011;3928;42.626;23.382;2023-06-10T11:05:01;6.88;;;3.70;;
7767;SDS011;3928;42.626;23.382;2023-06-10T11:07:29;7.35;;;3.70;;
7767;SDS011;3928;42.626;23.382;2023-06-10T11:09:57;6.15;;;3.20;;
7767;SDS011;3928;42.626;23.382;2023-06-10T11:12:28;3.92;;;3.42;;
7767;SDS011;3928;42.626;23.382;2023-06-10T11:15:13;4.95;;;3.08;;
7767;SDS011;3928;42.626;23.382;2023-06-10T11:20:44;10.43;;;4.40;;
7767;SDS011;3928;42.626;23.382;2023-06-10T11:23:25;9.63;;;4.13;;
7767;SDS011;3928;42.626;23.382;2023-06-10T11:26:18;7.72;;;4.20;;
7767;SDS011;3928;42.626;23.382;2023-06-10T11:29:07;5.30;;;3.53;;
7767;SDS011;3928;42.626;23.382;2023-06-10T11:31:42;5.28;;;3.30;;
7767;SDS011;3928;42.626;23.382;2023-06-10T11:34:15;4.25;;;3.70;;
7767;SDS011;3928;42.626;23.382;2023-06-10T11:36:48;4.72;;;3.55;;
7767;SDS011;3928;42.626;23.382;2023-06-10T11:39:15;6.18;;;3.67;;
7767;SDS011;3928;42.626;23.382;2023-06-10T11:41:45;3.50;;;3.20;;
7767;SDS011;3928;42.626;23.382;2023-06-10T11:44:13;6.05;;;4.07;;
7767;SDS011;3928;42.626;23.382;2023-06-10T11:46:40;4.20;;;3.13;;
7767;SDS011;3928;42.626;23.382;2023-06-10T11:49:08;6.28;;;3.70;;
7767;SDS011;3928;42.626;23.382;2023-06-10T11:51:35;5.20;;;3.50;;
7767;SDS011;3928;42.626;23.382;2023-06-10T11:54:04;4.05;;;3.72;;
7767;SDS011;3928;42.626;23.382;2023-06-10T11:56:31;3.65;;;3.35;;
7767;SDS011;3928;42.626;23.382;2023-06-10T11:58:59;3.60;;;2.80;;
7767;SDS011;3928;42.626;23.382;2023-06-10T12:01:31;3.17;;;2.83;;
7767;SDS011;3928;42.626;23.382;2023-06-10T12:03:59;7.15;;;3.67;;
7767;SDS011;3928;42.626;23.382;2023-06-10T12:06:37;5.68;;;3.65;;
7767;SDS011;3928;42.626;23.382;2023-06-10T12:09:04;7.32;;;3.25;;
7767;SDS011;3928;42.626;23.382;2023-06-10T12:11:31;8.02;;;4.10;;
7767;SDS011;3928;42.626;23.382;2023-06-10T12:13:59;3.63;;;3.20;;
7767;SDS011;3928;42.626;23.382;2023-06-10T12:16:28;4.38;;;3.83;;
7767;SDS011;3928;42.626;23.382;2023-06-10T12:19:01;3.95;;;3.55;;
7767;SDS011;3928;42.626;23.382;2023-06-10T12:21:29;4.10;;;2.97;;
7767;SDS011;3928;42.626;23.382;2023-06-10T12:24:04;3.10;;;2.80;;
7767;SDS011;3928;42.626;23.382;2023-06-10T12:26:35;5.55;;;3.45;;
7767;SDS011;3928;42.626;23.382;2023-06-10T12:29:12;6.22;;;3.53;;
7767;SDS011;3928;42.626;23.382;2023-06-10T12:31:53;4.80;;;3.58;;
7767;SDS011;3928;42.626;23.382;2023-06-10T12:34:28;8.15;;;3.20;;
7767;SDS011;3928;42.626;23.382;2023-06-10T12:36:59;5.03;;;3.13;;
7767;SDS011;3928;42.626;23.382;2023-06-10T12:39:26;3.92;;;3.33;;
7767;SDS011;3928;42.626;23.382;2023-06-10T12:41:53;7.57;;;3.38;;
7767;SDS011;3928;42.626;23.382;2023-06-10T12:44:28;4.70;;;3.88;;
7767;SDS011;3928;42.626;23.382;2023-06-10T12:46:59;4.82;;;3.65;;
7767;SDS011;3928;42.626;23.382;2023-06-10T12:49:26;4.00;;;3.42;;
7767;SDS011;3928;42.626;23.382;2023-06-10T12:51:54;4.70;;;3.15;;
7767;SDS011;3928;42.626;23.382;2023-06-10T12:54:21;22.45;;;5.43;;
7767;SDS011;3928;42.626;23.382;2023-06-10T12:56:48;9.13;;;4.20;;
7767;SDS011;3928;42.626;23.382;2023-06-10T12:59:15;3.38;;;3.08;;
7767;SDS011;3928;42.626;23.382;2023-06-10T13:01:42;4.78;;;3.33;;
7767;SDS011;3928;42.626;23.382;2023-06-10T13:04:09;3.47;;;3.17;;
7767;SDS011;3928;42.626;23.382;2023-06-10T13:06:37;4.35;;;3.50;;
7767;SDS011;3928;42.626;23.382;2023-06-10T13:09:09;5.15;;;3.22;;
7767;SDS011;3928;42.626;23.382;2023-06-10T13:11:36;4.97;;;4.47;;
7767;SDS011;3928;42.626;23.382;2023-06-10T13:14:04;6.28;;;3.88;;
7767;SDS011;3928;42.626;23.382;2023-06-10T13:16:31;4.25;;;3.78;;
7767;SDS011;3928;42.626;23.382;2023-06-10T13:18:58;3.88;;;3.45;;
7767;SDS011;3928;42.626;23.382;2023-06-10T13:21:27;5.45;;;3.50;;
7767;SDS011;3928;42.626;23.382;2023-06-10T13:23:54;8.60;;;3.53;;
7767;SDS011;3928;42.626;23.382;2023-06-10T13:26:22;5.25;;;3.50;;
7767;SDS011;3928;42.626;23.382;2023-06-10T13:28:49;6.88;;;3.42;;
7767;SDS011;3928;42.626;23.382;2023-06-10T13:31:16;4.30;;;3.50;;
7767;SDS011;3928;42.626;23.382;2023-06-10T13:33:43;3.40;;;3.13;;
7767;SDS011;3928;42.626;23.382;2023-06-10T13:36:09;4.35;;;3.05;;
7767;SDS011;3928;42.626;23.382;2023-06-10T13:38:37;7.00;;;3.55;;
7767;SDS011;3928;42.626;23.382;2023-06-10T13:41:04;12.23;;;4.40;;
7767;SDS011;3928;42.626;23.382;2023-06-10T13:43:33;10.93;;;4.00;;
7767;SDS011;3928;42.626;23.382;2023-06-10T13:45:59;8.77;;;4.28;;
7767;SDS011;3928;42.626;23.382;2023-06-10T13:48:26;5.40;;;4.50;;
7767;SDS011;3928;42.626;23.382;2023-06-10T13:50:53;4.60;;;4.20;;
7767;SDS011;3928;42.626;23.382;2023-06-10T13:53:20;5.60;;;4.85;;
7767;SDS011;3928;42.626;23.382;2023-06-10T13:55:47;6.63;;;5.00;;
7767;SDS011;3928;42.626;23.382;2023-06-10T13:58:13;5.95;;;4.63;;
7767;SDS011;3928;42.626;23.382;2023-06-10T14:00:41;9.30;;;4.43;;
7767;SDS011;3928;42.626;23.382;2023-06-10T14:03:08;7.22;;;4.97;;
7767;SDS011;3928;42.626;23.382;2023-06-10T14:05:35;5.93;;;4.57;;
7767;SDS011;3928;42.626;23.382;2023-06-10T14:08:02;5.80;;;4.90;;
7767;SDS011;3928;42.626;23.382;2023-06-10T14:10:29;6.15;;;4.35;;
7767;SDS011;3928;42.626;23.382;2023-06-10T14:12:55;4.70;;;4.20;;
7767;SDS011;3928;42.626;23.382;2023-06-10T14:15:22;6.18;;;4.45;;
7767;SDS011;3928;42.626;23.382;2023-06-10T14:17:51;7.45;;;4.85;;
7767;SDS011;3928;42.626;23.382;2023-06-10T14:20:17;5.28;;;3.97;;
7767;SDS011;3928;42.626;23.382;2023-06-10T14:22:44;5.70;;;4.70;;
7767;SDS011;3928;42.626;23.382;2023-06-10T14:25:11;11.65;;;5.15;;
7767;SDS011;3928;42.626;23.382;2023-06-10T14:27:38;6.22;;;4.30;;
7767;SDS011;3928;42.626;23.382;2023-06-10T14:30:07;8.07;;;4.53;;
7767;SDS011;3928;42.626;23.382;2023-06-10T14:32:34;6.97;;;4.45;;
7767;SDS011;3928;42.626;23.382;2023-06-10T14:35:02;5.25;;;4.43;;
7767;SDS011;3928;42.626;23.382;2023-06-10T14:37:30;5.55;;;4.32;;
7767;SDS011;3928;42.626;23.382;2023-06-10T14:39:56;6.88;;;4.45;;
7767;SDS011;3928;42.626;23.382;2023-06-10T14:42:23;5.43;;;4.32;;
7767;SDS011;3928;42.626;23.382;2023-06-10T14:44:50;5.32;;;4.43;;
7767;SDS011;3928;42.626;23.382;2023-06-10T14:47:17;6.45;;;4.68;;
7767;SDS011;3928;42.626;23.382;2023-06-10T14:49:44;6.30;;;4.35;;
7767;SDS011;3928;42.626;23.382;2023-06-10T14:52:12;6.22;;;4.20;;
7767;SDS011;3928;42.626;23.382;2023-06-10T14:54:39;6.63;;;4.30;;
7767;SDS011;3928;42.626;23.382;2023-06-10T14:57:05;4.07;;;3.67;;
7767;SDS011;3928;42.626;23.382;2023-06-10T14:59:32;5.97;;;4.53;;
7767;SDS011;3928;42.626;23.382;2023-06-10T15:02:00;5.13;;;4.40;;